Time;durP1;ratioP1;P1;durP2;ratioP2;P2;SDS_P1;SDS_P2;PMS_P1;PMS_P2;Temp;Humidity;BMP_temperature;BMP_pressure;BME280_temperature;BME280_humidity;BME280_pressure;Samples;Min_cycle;Max_cycle;Signal;HPM_P1;HPM_P2
2021/08/30 00:00:55;;;;;;;16.97;12.40;;;16.00;99.90;;;;;;5123309;27;20207;-47
2021/08/30 00:03:21;;;;;;;14.63;11.93;;;16.00;99.90;;;;;;5095326;27;20229;-50
2021/08/30 00:05:49;;;;;;;18.10;12.70;;;16.00;99.90;;;;;;5125803;27;20209;-50
2021/08/30 00:08:16;;;;;;;14.27;12.77;;;16.00;99.90;;;;;;5126314;27;20200;-49
2021/08/30 00:10:43;;;;;;;17.07;12.47;;;15.90;99.90;;;;;;5127594;27;20833;-47
2021/08/30 00:13:09;;;;;;;14.60;12.53;;;15.90;99.90;;;;;;5127267;27;20204;-48
2021/08/30 00:15:36;;;;;;;16.83;12.33;;;15.90;99.90;;;;;;5111851;27;20228;-47
2021/08/30 00:18:03;;;;;;;18.80;12.27;;;15.90;99.90;;;;;;5108135;28;20190;-47
2021/08/30 00:20:29;;;;;;;16.23;12.97;;;15.90;99.90;;;;;;5110370;27;20203;-46
2021/08/30 00:22:57;;;;;;;13.63;11.73;;;15.90;99.90;;;;;;5123462;27;20228;-47
2021/08/30 00:25:24;;;;;;;13.57;11.23;;;15.90;99.90;;;;;;5130904;27;20374;-46
2021/08/30 00:27:50;;;;;;;16.27;13.13;;;15.90;99.90;;;;;;5125467;27;20197;-48
2021/08/30 00:30:17;;;;;;;16.43;13.43;;;15.90;99.90;;;;;;5122985;27;20695;-47
2021/08/30 00:32:44;;;;;;;17.00;13.07;;;15.90;99.90;;;;;;5124894;27;20208;-49
2021/08/30 00:35:10;;;;;;;17.00;13.33;;;15.90;99.90;;;;;;5106356;27;20846;-46
2021/08/30 00:37:37;;;;;;;13.87;11.67;;;15.90;99.90;;;;;;5125571;27;20201;-48
2021/08/30 00:40:07;;;;;;;15.73;12.53;;;15.90;99.90;;;;;;5120476;27;20208;-48
2021/08/30 00:42:33;;;;;;;17.03;13.07;;;15.90;99.90;;;;;;5127050;27;20204;-50
2021/08/30 00:45:02;;;;;;;17.50;12.77;;;16.00;99.90;;;;;;5119016;27;20390;-47
2021/08/30 00:47:28;;;;;;;15.97;12.70;;;16.00;99.90;;;;;;5120623;27;20224;-47
2021/08/30 00:49:55;;;;;;;13.17;11.77;;;15.90;99.90;;;;;;5118577;27;20859;-48
2021/08/30 00:52:22;;;;;;;16.07;12.60;;;15.90;99.90;;;;;;5131817;27;20217;-48
2021/08/30 00:54:50;;;;;;;14.47;12.63;;;15.90;99.90;;;;;;5133949;27;20192;-51
2021/08/30 00:57:18;;;;;;;18.07;12.63;;;15.90;99.90;;;;;;5106058;27;20205;-47
2021/08/30 00:59:44;;;;;;;17.43;13.07;;;15.90;99.90;;;;;;5103005;27;20205;-51
2021/08/30 01:02:12;;;;;;;15.40;11.77;;;15.90;99.90;;;;;;5114809;27;20216;-50
2021/08/30 01:04:40;;;;;;;14.73;12.03;;;15.90;99.90;;;;;;5106597;27;20212;-50
2021/08/30 01:07:13;;;;;;;16.90;11.90;;;15.90;99.90;;;;;;5128455;27;20184;-48
2021/08/30 01:09:45;;;;;;;14.53;11.57;;;15.90;99.90;;;;;;5145400;27;20777;-46
2021/08/30 01:12:17;;;;;;;14.97;12.90;;;15.90;99.90;;;;;;5146163;27;20228;-50
2021/08/30 01:14:51;;;;;;;13.60;12.13;;;15.90;99.90;;;;;;5142692;27;20184;-52
2021/08/30 01:17:20;;;;;;;14.80;11.97;;;15.90;99.90;;;;;;5105805;28;20193;-48
2021/08/30 01:19:52;;;;;;;17.70;12.93;;;15.90;99.90;;;;;;5095783;27;20205;-49
2021/08/30 01:22:21;;;;;;;13.57;11.87;;;15.90;99.90;;;;;;5089489;27;990819;-47
2021/08/30 01:24:49;;;;;;;15.53;12.40;;;15.90;99.90;;;;;;5116858;27;20215;-49
2021/08/30 01:27:17;;;;;;;17.20;11.97;;;15.90;99.90;;;;;;5106545;27;20205;-47
2021/08/30 01:29:56;;;;;;;16.87;11.97;;;15.90;99.90;;;;;;5104262;28;20196;-48
2021/08/30 01:32:30;;;;;;;19.07;12.37;;;15.90;99.90;;;;;;5100097;27;20293;-46
2021/08/30 01:34:58;;;;;;;15.87;12.30;;;15.90;99.90;;;;;;5095043;27;21226;-49
2021/08/30 01:37:25;;;;;;;15.07;12.27;;;15.90;99.90;;;;;;5132236;27;20193;-47
2021/08/30 01:39:53;;;;;;;15.83;12.10;;;15.90;99.90;;;;;;5122664;27;20191;-46
2021/08/30 01:42:20;;;;;;;14.30;11.87;;;15.90;99.90;;;;;;5127256;27;20204;-47
2021/08/30 01:44:48;;;;;;;16.20;11.90;;;15.90;99.90;;;;;;5118488;27;20224;-49
2021/08/30 01:47:14;;;;;;;15.13;11.90;;;15.90;99.90;;;;;;5110329;27;20208;-47
2021/08/30 01:49:44;;;;;;;17.67;12.30;;;15.90;99.90;;;;;;5098487;27;20205;-48
2021/08/30 01:52:11;;;;;;;20.77;12.97;;;15.90;99.90;;;;;;5115036;27;20224;-49
2021/08/30 01:54:38;;;;;;;15.93;12.10;;;15.90;99.90;;;;;;5130442;27;20196;-50
2021/08/30 01:57:05;;;;;;;16.43;11.63;;;15.90;99.90;;;;;;5103699;28;20290;-47
2021/08/30 02:02:17;;;;;;;16.73;12.63;;;15.90;99.90;;;;;;5106428;27;20578;-50
2021/08/30 02:04:44;;;;;;;14.63;11.97;;;16.00;99.90;;;;;;5121575;27;20220;-50
2021/08/30 02:07:11;;;;;;;13.63;11.03;;;15.90;99.90;;;;;;5105647;27;20204;-49
2021/08/30 02:09:38;;;;;;;16.20;12.17;;;15.90;99.90;;;;;;5124852;27;20193;-51
2021/08/30 02:12:05;;;;;;;17.63;12.43;;;16.00;99.90;;;;;;5123758;27;20656;-47
2021/08/30 02:14:32;;;;;;;16.13;12.30;;;16.00;99.90;;;;;;5126704;27;20829;-48
2021/08/30 02:17:05;;;;;;;16.73;12.33;;;16.00;99.90;;;;;;5122289;27;20185;-50
2021/08/30 02:19:41;;;;;;;14.07;11.97;;;16.00;99.90;;;;;;5107105;27;20204;-49
2021/08/30 02:22:15;;;;;;;14.37;11.73;;;16.00;99.90;;;;;;5105883;27;20227;-49
2021/08/30 02:24:47;;;;;;;13.97;11.03;;;16.00;99.90;;;;;;5121155;27;20223;-52
2021/08/30 02:27:19;;;;;;;16.07;11.93;;;16.00;99.90;;;;;;5104110;27;20209;-48
2021/08/30 02:29:49;;;;;;;15.77;12.07;;;16.00;99.90;;;;;;5102722;28;20194;-49
2021/08/30 02:32:18;;;;;;;16.57;12.13;;;16.00;99.90;;;;;;5105144;28;20217;-48
2021/08/30 02:34:46;;;;;;;13.27;11.87;;;16.00;99.90;;;;;;5115077;27;20202;-50
2021/08/30 02:37:15;;;;;;;16.27;11.80;;;16.00;99.90;;;;;;5128919;27;20237;-50
2021/08/30 02:39:47;;;;;;;15.47;11.67;;;16.00;99.90;;;;;;5131590;27;20196;-49
2021/08/30 02:42:15;;;;;;;16.40;11.37;;;16.00;99.90;;;;;;5117475;27;20216;-47
2021/08/30 02:44:42;;;;;;;16.80;12.47;;;16.00;99.90;;;;;;5123962;27;20214;-52
2021/08/30 02:47:09;;;;;;;16.50;11.00;;;16.00;99.90;;;;;;5123958;27;20211;-48
2021/08/30 02:49:36;;;;;;;17.67;12.67;;;16.00;99.90;;;;;;5114300;27;20204;-46
2021/08/30 02:52:05;;;;;;;16.97;12.43;;;16.00;99.90;;;;;;5105608;27;20211;-48
2021/08/30 02:54:34;;;;;;;16.97;12.53;;;16.00;99.90;;;;;;5130086;27;20192;-47
2021/08/30 02:57:03;;;;;;;12.50;11.20;;;16.00;99.90;;;;;;5099096;27;20197;-48
2021/08/30 02:59:30;;;;;;;13.83;12.33;;;16.00;99.90;;;;;;5105071;28;20253;-47
2021/08/30 03:01:58;;;;;;;13.90;11.10;;;15.90;99.90;;;;;;5099612;28;20196;-48
2021/08/30 03:04:25;;;;;;;14.27;11.57;;;15.90;99.90;;;;;;5102909;27;20220;-49
2021/08/30 03:06:52;;;;;;;16.47;11.60;;;15.90;99.90;;;;;;5115466;27;20200;-47
2021/08/30 03:09:19;;;;;;;17.43;12.20;;;15.90;99.90;;;;;;5105334;27;20212;-47
2021/08/30 03:11:49;;;;;;;13.80;11.83;;;15.90;99.90;;;;;;5128600;27;20197;-48
2021/08/30 03:14:18;;;;;;;15.07;11.53;;;15.90;99.90;;;;;;5125437;27;20201;-50
2021/08/30 03:16:45;;;;;;;15.10;11.77;;;15.90;99.90;;;;;;5108131;27;20204;-46
2021/08/30 03:19:14;;;;;;;14.23;12.50;;;15.90;99.90;;;;;;5103322;28;20185;-48
2021/08/30 03:21:41;;;;;;;14.13;12.63;;;15.80;99.90;;;;;;5124815;27;20208;-49
2021/08/30 03:24:09;;;;;;;17.17;13.57;;;15.80;99.90;;;;;;5109327;27;20227;-49
2021/08/30 03:26:37;;;;;;;15.43;12.80;;;15.80;99.90;;;;;;5124267;27;20568;-48
2021/08/30 03:29:06;;;;;;;15.97;13.33;;;15.80;99.90;;;;;;5098302;27;20205;-47
2021/08/30 03:31:33;;;;;;;18.97;12.87;;;15.80;99.90;;;;;;5104576;28;20201;-48
2021/08/30 03:34:01;;;;;;;17.03;12.90;;;15.80;99.90;;;;;;5101181;28;20923;-49
2021/08/30 03:36:29;;;;;;;16.00;14.17;;;15.80;99.90;;;;;;5102542;27;20670;-50
2021/08/30 03:38:57;;;;;;;16.03;13.50;;;15.80;99.90;;;;;;5092750;27;20203;-51
2021/08/30 03:41:25;;;;;;;16.70;13.27;;;15.80;99.90;;;;;;5131710;27;20669;-49
2021/08/30 03:43:53;;;;;;;18.17;13.50;;;15.80;99.90;;;;;;5117028;27;20201;-51
2021/08/30 03:46:21;;;;;;;17.00;13.87;;;15.80;99.90;;;;;;5104319;28;20238;-49
2021/08/30 03:48:49;;;;;;;19.37;14.03;;;15.80;99.90;;;;;;5100878;28;20190;-50
2021/08/30 03:51:16;;;;;;;17.30;13.30;;;15.80;99.90;;;;;;5104478;27;20204;-48
2021/08/30 03:53:43;;;;;;;15.93;13.63;;;15.80;99.90;;;;;;5129155;27;20224;-47
2021/08/30 03:56:12;;;;;;;19.23;13.47;;;15.80;99.90;;;;;;5110655;27;20204;-47
2021/08/30 03:58:40;;;;;;;17.93;14.10;;;15.80;99.90;;;;;;5132123;27;20196;-47
2021/08/30 04:01:09;;;;;;;20.33;14.30;;;15.80;99.90;;;;;;5114546;27;20647;-48
2021/08/30 04:03:39;;;;;;;18.87;14.20;;;15.80;99.90;;;;;;5103787;28;20239;-47
2021/08/30 04:06:08;;;;;;;18.67;13.73;;;15.80;99.90;;;;;;5101061;27;20220;-47
2021/08/30 04:08:35;;;;;;;18.80;14.30;;;15.80;99.90;;;;;;5118341;27;20203;-48
2021/08/30 04:11:02;;;;;;;19.83;13.17;;;15.80;99.90;;;;;;5109684;27;21765;-50
2021/08/30 04:13:29;;;;;;;19.07;14.07;;;15.80;99.90;;;;;;5124782;27;20219;-48
2021/08/30 04:15:56;;;;;;;17.97;13.13;;;15.80;99.90;;;;;;5122589;27;20180;-47
2021/08/30 04:18:22;;;;;;;16.00;12.97;;;15.80;99.90;;;;;;5123428;27;20204;-47
2021/08/30 04:20:50;;;;;;;15.23;13.60;;;15.80;99.90;;;;;;5121082;27;20199;-48
2021/08/30 04:23:17;;;;;;;17.43;14.30;;;15.80;99.90;;;;;;5107547;27;20606;-49
2021/08/30 04:25:43;;;;;;;17.30;14.00;;;15.80;99.90;;;;;;5132522;27;20215;-47
2021/08/30 04:28:10;;;;;;;18.17;13.37;;;15.80;99.90;;;;;;5117309;27;20881;-49
2021/08/30 04:30:38;;;;;;;17.63;14.03;;;15.80;99.90;;;;;;5127112;27;20193;-50
2021/08/30 04:33:09;;;;;;;16.10;14.17;;;15.80;99.90;;;;;;5125444;27;20292;-47
2021/08/30 04:35:36;;;;;;;20.30;13.63;;;15.80;99.90;;;;;;5127150;27;20216;-51
2021/08/30 04:38:04;;;;;;;16.93;12.87;;;15.80;99.90;;;;;;5110801;27;20201;-47
2021/08/30 04:40:31;;;;;;;18.57;13.27;;;15.80;99.90;;;;;;5119941;27;20540;-49
2021/08/30 04:42:58;;;;;;;18.37;13.23;;;15.80;99.90;;;;;;5103978;27;20236;-50
2021/08/30 04:45:24;;;;;;;15.77;12.60;;;15.80;99.90;;;;;;5129384;27;20207;-53
2021/08/30 04:47:51;;;;;;;16.33;12.63;;;15.80;99.90;;;;;;5103608;27;20212;-46
2021/08/30 04:50:18;;;;;;;19.17;13.50;;;15.80;99.90;;;;;;5126052;27;20197;-48
2021/08/30 04:52:44;;;;;;;16.60;13.10;;;15.80;99.90;;;;;;5109386;27;20577;-47
2021/08/30 04:55:14;;;;;;;17.83;13.33;;;15.80;99.90;;;;;;5142745;27;20181;-50
2021/08/30 04:57:41;;;;;;;19.10;13.30;;;15.90;99.90;;;;;;5114855;27;20348;-47
2021/08/30 05:00:08;;;;;;;14.90;12.63;;;15.90;99.90;;;;;;5125910;27;20181;-49
2021/08/30 05:02:35;;;;;;;16.07;12.73;;;15.80;99.90;;;;;;5126374;27;20215;-46
2021/08/30 05:05:02;;;;;;;17.37;13.37;;;15.90;99.90;;;;;;5124153;27;20204;-46
2021/08/30 05:07:28;;;;;;;16.37;13.17;;;15.90;99.90;;;;;;5118385;27;20196;-48
2021/08/30 05:09:55;;;;;;;15.60;12.50;;;15.90;99.90;;;;;;5100987;27;20189;-48
2021/08/30 05:12:26;;;;;;;19.63;13.67;;;15.90;99.90;;;;;;5114138;27;20225;-49
2021/08/30 05:14:53;;;;;;;18.70;13.57;;;15.90;99.90;;;;;;5113918;27;20216;-51
2021/08/30 05:17:19;;;;;;;17.60;13.90;;;15.90;99.90;;;;;;5107864;27;20201;-47
2021/08/30 05:19:46;;;;;;;18.37;13.20;;;15.90;99.90;;;;;;5117390;27;20184;-47
2021/08/30 05:22:13;;;;;;;18.67;13.70;;;15.90;99.90;;;;;;5111468;27;20236;-46
2021/08/30 05:24:40;;;;;;;17.37;13.90;;;15.90;99.90;;;;;;5117020;27;20209;-45
2021/08/30 05:27:07;;;;;;;15.70;13.27;;;15.80;99.90;;;;;;5117513;27;20193;-46
2021/08/30 05:29:35;;;;;;;21.03;14.10;;;15.80;99.90;;;;;;5105874;27;20197;-48
2021/08/30 05:32:01;;;;;;;19.30;14.47;;;15.80;99.90;;;;;;5115099;27;20223;-47
2021/08/30 05:34:28;;;;;;;16.33;12.80;;;15.80;99.90;;;;;;5109957;27;20276;-46
2021/08/30 05:36:55;;;;;;;18.27;14.93;;;15.80;99.90;;;;;;5118652;27;20267;-50
2021/08/30 05:39:21;;;;;;;18.40;13.97;;;15.80;99.90;;;;;;5112098;27;20229;-49
2021/08/30 05:41:48;;;;;;;17.53;13.27;;;15.80;99.90;;;;;;5119826;27;20251;-47
2021/08/30 05:44:14;;;;;;;15.60;13.97;;;15.80;99.90;;;;;;5105038;27;20219;-47
2021/08/30 05:46:42;;;;;;;20.10;13.73;;;15.80;99.90;;;;;;5109199;27;20225;-48
2021/08/30 05:49:09;;;;;;;17.33;13.27;;;15.80;99.90;;;;;;5112146;27;20208;-52
2021/08/30 05:51:36;;;;;;;16.10;13.60;;;15.90;99.90;;;;;;5117434;27;20211;-47
2021/08/30 05:54:02;;;;;;;16.07;13.37;;;15.90;99.90;;;;;;5112109;27;20193;-49
2021/08/30 05:56:29;;;;;;;18.47;14.00;;;15.90;99.90;;;;;;5113456;27;20917;-48
2021/08/30 05:58:56;;;;;;;17.87;13.27;;;15.90;99.90;;;;;;5113749;27;20197;-45
2021/08/30 06:01:22;;;;;;;16.13;12.67;;;15.90;99.90;;;;;;5106302;27;20233;-48
2021/08/30 06:03:50;;;;;;;15.33;13.20;;;15.90;99.90;;;;;;5116409;27;20216;-49
2021/08/30 06:06:17;;;;;;;18.13;13.60;;;16.00;99.90;;;;;;5114211;27;20212;-49
2021/08/30 06:08:43;;;;;;;16.83;13.77;;;16.00;99.90;;;;;;5104867;27;20247;-47
2021/08/30 06:11:10;;;;;;;18.37;12.70;;;16.00;99.90;;;;;;5119606;27;20211;-46
2021/08/30 06:13:36;;;;;;;16.63;13.57;;;16.10;99.90;;;;;;5121587;27;20240;-48
2021/08/30 06:16:03;;;;;;;17.87;11.73;;;16.10;99.90;;;;;;5113597;27;20193;-48
2021/08/30 06:18:30;;;;;;;15.27;12.27;;;16.10;99.90;;;;;;5115752;27;20189;-47
2021/08/30 06:20:58;;;;;;;15.87;12.03;;;16.10;99.90;;;;;;5124822;27;20656;-47
2021/08/30 06:23:24;;;;;;;13.37;11.87;;;16.10;99.90;;;;;;5108781;27;20211;-48
2021/08/30 06:25:51;;;;;;;15.30;11.93;;;16.10;99.90;;;;;;5134138;27;20262;-46
2021/08/30 06:28:18;;;;;;;13.73;10.53;;;16.10;99.90;;;;;;5117913;27;20679;-49
2021/08/30 06:30:44;;;;;;;15.00;11.73;;;16.20;99.90;;;;;;5103447;27;20212;-51
2021/08/30 06:33:11;;;;;;;13.13;11.47;;;16.20;99.90;;;;;;5115746;27;20220;-49
2021/08/30 06:35:42;;;;;;;14.27;11.30;;;16.20;99.90;;;;;;5114174;27;20196;-46
2021/08/30 06:38:11;;;;;;;12.67;11.37;;;16.30;99.90;;;;;;5099736;27;20961;-48
2021/08/30 06:40:37;;;;;;;15.23;11.90;;;16.30;99.90;;;;;;5100106;27;20209;-46
2021/08/30 06:43:04;;;;;;;13.30;11.07;;;16.40;99.90;;;;;;5109783;27;20209;-48
2021/08/30 06:45:31;;;;;;;16.83;10.80;;;16.40;99.90;;;;;;5110722;27;20211;-49
2021/08/30 06:47:58;;;;;;;13.23;10.50;;;16.50;99.90;;;;;;5099473;27;20212;-47
2021/08/30 06:50:25;;;;;;;15.67;11.23;;;16.50;99.90;;;;;;5122441;27;20192;-49
2021/08/30 06:52:53;;;;;;;15.23;10.47;;;16.60;99.90;;;;;;5098938;27;20215;-46
2021/08/30 06:55:21;;;;;;;13.30;10.20;;;16.70;99.90;;;;;;5131299;27;20200;-49
2021/08/30 06:57:48;;;;;;;14.57;9.93;;;16.70;99.90;;;;;;5110456;27;20204;-47
2021/08/30 07:00:17;;;;;;;11.63;10.17;;;16.80;99.90;;;;;;5117289;27;20226;-50
2021/08/30 07:02:43;;;;;;;14.67;9.57;;;16.80;99.90;;;;;;5097238;27;20304;-46
2021/08/30 07:05:10;;;;;;;12.50;9.13;;;16.80;99.90;;;;;;5115942;27;20224;-46
2021/08/30 07:07:37;;;;;;;12.07;9.77;;;16.80;99.90;;;;;;5108487;27;20387;-48
2021/08/30 07:10:05;;;;;;;11.03;9.90;;;16.80;99.90;;;;;;5105410;28;20285;-48
2021/08/30 07:12:33;;;;;;;9.83;8.83;;;16.90;99.90;;;;;;5108634;27;20213;-49
2021/08/30 07:14:59;;;;;;;10.37;8.53;;;16.90;99.90;;;;;;5110990;27;20910;-48
2021/08/30 07:17:26;;;;;;;9.97;9.07;;;17.00;99.90;;;;;;5111852;27;20211;-46
2021/08/30 07:19:52;;;;;;;11.13;8.80;;;17.00;99.90;;;;;;5110519;27;20204;-48
2021/08/30 07:22:19;;;;;;;10.30;9.17;;;17.10;99.90;;;;;;5106753;28;20223;-46
2021/08/30 07:24:46;;;;;;;9.47;8.40;;;17.20;99.90;;;;;;5120196;27;20192;-48
2021/08/30 07:27:13;;;;;;;13.33;8.70;;;17.30;99.90;;;;;;5109674;27;20213;-45
2021/08/30 07:29:40;;;;;;;10.80;7.90;;;17.30;99.90;;;;;;5116324;27;20216;-45
2021/08/30 07:32:08;;;;;;;9.63;8.43;;;17.30;99.90;;;;;;5107058;27;20736;-44
2021/08/30 07:34:34;;;;;;;8.63;7.23;;;17.40;99.90;;;;;;5118193;27;20199;-46
2021/08/30 07:37:01;;;;;;;9.33;7.60;;;17.40;99.90;;;;;;5111192;27;20865;-53
2021/08/30 07:39:28;;;;;;;8.80;8.00;;;17.50;99.90;;;;;;5108374;28;20195;-45
2021/08/30 07:41:54;;;;;;;9.57;7.03;;;17.50;99.90;;;;;;5119455;28;20239;-48
2021/08/30 07:44:22;;;;;;;8.00;7.20;;;17.50;99.90;;;;;;5110475;27;20204;-46
2021/08/30 07:46:50;;;;;;;10.33;6.70;;;17.50;99.90;;;;;;5117847;27;20221;-49
2021/08/30 07:49:17;;;;;;;10.10;6.97;;;17.50;99.90;;;;;;5098623;27;20321;-47
2021/08/30 07:51:43;;;;;;;7.33;6.67;;;17.50;99.90;;;;;;5125323;27;20197;-47
2021/08/30 07:54:11;;;;;;;11.03;6.73;;;17.50;99.90;;;;;;5129270;27;20192;-46
2021/08/30 07:56:38;;;;;;;7.07;6.37;;;17.50;99.90;;;;;;5129365;27;20653;-49
2021/08/30 07:59:05;;;;;;;6.97;6.33;;;17.60;99.90;;;;;;5117017;27;20555;-47
2021/08/30 08:01:32;;;;;;;7.33;6.10;;;17.60;99.90;;;;;;5109936;27;20201;-46
2021/08/30 08:04:00;;;;;;;7.43;6.13;;;17.70;99.90;;;;;;5106435;27;20269;-46
2021/08/30 08:06:27;;;;;;;7.03;6.23;;;17.70;99.90;;;;;;5114988;27;20213;-46
2021/08/30 08:08:53;;;;;;;7.37;6.67;;;17.70;99.90;;;;;;5115838;27;20212;-46
2021/08/30 08:11:20;;;;;;;7.60;6.90;;;17.70;99.90;;;;;;5116501;27;20185;-46
2021/08/30 08:13:47;;;;;;;8.33;6.10;;;17.70;99.90;;;;;;5123616;27;20215;-46
2021/08/30 08:16:14;;;;;;;7.23;6.43;;;17.70;99.90;;;;;;5098516;27;20207;-49
2021/08/30 08:18:40;;;;;;;6.23;5.63;;;17.70;99.90;;;;;;5113244;27;20193;-46
2021/08/30 08:21:08;;;;;;;8.13;5.80;;;17.70;99.90;;;;;;5108726;27;20208;-46
2021/08/30 08:23:35;;;;;;;6.27;5.67;;;17.70;99.90;;;;;;5128066;27;20216;-45
2021/08/30 08:26:02;;;;;;;6.57;5.80;;;17.70;99.90;;;;;;5119919;27;20577;-46
2021/08/30 08:28:29;;;;;;;6.17;5.60;;;17.70;99.90;;;;;;5123314;27;20211;-48
2021/08/30 08:30:56;;;;;;;8.73;5.60;;;17.70;99.90;;;;;;5107638;27;20206;-48
2021/08/30 08:33:22;;;;;;;6.50;5.83;;;17.70;99.90;;;;;;5120603;27;20216;-46
2021/08/30 08:35:49;;;;;;;12.10;5.93;;;17.70;99.90;;;;;;5109841;27;20197;-45
2021/08/30 08:38:17;;;;;;;6.47;5.87;;;17.60;99.90;;;;;;5123405;27;20794;-46
2021/08/30 08:40:44;;;;;;;6.20;5.67;;;17.70;99.90;;;;;;5117953;27;20188;-47
2021/08/30 08:43:12;;;;;;;7.83;6.10;;;17.70;99.90;;;;;;5122121;27;20801;-46
2021/08/30 08:45:40;;;;;;;6.77;6.07;;;17.70;99.90;;;;;;5109934;27;20229;-46
2021/08/30 08:48:07;;;;;;;7.77;5.93;;;17.70;99.90;;;;;;5106793;27;20200;-46
2021/08/30 08:50:33;;;;;;;6.33;5.57;;;17.70;99.90;;;;;;5114818;27;20192;-51
2021/08/30 08:53:04;;;;;;;10.20;5.50;;;17.70;99.90;;;;;;5105916;27;20212;-46
2021/08/30 08:55:34;;;;;;;5.63;5.00;;;17.70;99.90;;;;;;5124027;27;20197;-46
2021/08/30 08:58:03;;;;;;;6.00;5.50;;;17.70;99.90;;;;;;5112948;27;20273;-48
2021/08/30 09:00:30;;;;;;;6.17;5.57;;;17.70;99.90;;;;;;5111680;27;20193;-48
2021/08/30 09:02:57;;;;;;;6.70;6.00;;;17.70;99.90;;;;;;5109369;27;20221;-47
2021/08/30 09:05:25;;;;;;;6.17;5.57;;;17.70;99.90;;;;;;5121260;27;20197;-45
2021/08/30 09:07:52;;;;;;;9.83;5.83;;;17.70;99.90;;;;;;5117943;27;20669;-45
2021/08/30 09:10:24;;;;;;;5.63;5.23;;;17.70;99.90;;;;;;5119089;27;20203;-47
2021/08/30 09:13:02;;;;;;;5.37;4.97;;;17.70;99.90;;;;;;5135610;27;20238;-50
2021/08/30 09:15:29;;;;;;;4.53;4.07;;;17.60;99.90;;;;;;5117486;27;20210;-46
2021/08/30 09:17:57;;;;;;;5.73;4.80;;;17.60;99.90;;;;;;5104700;27;20569;-44
2021/08/30 09:20:27;;;;;;;7.70;5.00;;;17.60;99.90;;;;;;5111515;27;20185;-47
2021/08/30 09:22:54;;;;;;;5.90;4.87;;;17.60;99.90;;;;;;5099881;27;20223;-47
2021/08/30 09:25:21;;;;;;;5.87;4.63;;;17.60;99.90;;;;;;5121130;27;20196;-49
2021/08/30 09:27:51;;;;;;;8.93;4.70;;;17.50;99.90;;;;;;5117751;27;20213;-47
2021/08/30 09:30:25;;;;;;;5.30;4.80;;;17.60;99.90;;;;;;5128532;27;20181;-46
2021/08/30 09:32:51;;;;;;;5.30;4.80;;;17.50;99.90;;;;;;5124428;27;20212;-47
2021/08/30 09:35:21;;;;;;;6.33;5.70;;;17.50;99.90;;;;;;5114795;27;20894;-49
2021/08/30 09:37:47;;;;;;;5.93;4.97;;;17.50;99.90;;;;;;5117891;27;20199;-47
2021/08/30 09:40:16;;;;;;;6.33;5.17;;;17.50;99.90;;;;;;5110095;27;21377;-46
2021/08/30 09:42:47;;;;;;;6.63;5.47;;;17.50;99.90;;;;;;5133094;27;20208;-46
2021/08/30 09:45:15;;;;;;;5.77;5.23;;;17.50;99.90;;;;;;5117822;27;20193;-46
2021/08/30 09:47:52;;;;;;;5.47;5.07;;;17.50;99.90;;;;;;5115648;27;20228;-46
2021/08/30 09:50:19;;;;;;;5.33;4.47;;;17.50;99.90;;;;;;5120147;27;20289;-50
2021/08/30 09:52:46;;;;;;;5.30;4.80;;;17.50;99.90;;;;;;5116657;27;20225;-47
2021/08/30 09:55:12;;;;;;;6.13;5.10;;;17.50;99.90;;;;;;5100698;27;20197;-49
2021/08/30 09:57:46;;;;;;;6.13;5.53;;;17.50;99.90;;;;;;5121596;27;20189;-45
2021/08/30 10:00:14;;;;;;;5.17;4.70;;;17.50;99.90;;;;;;5113112;27;20189;-47
2021/08/30 10:02:42;;;;;;;6.53;5.20;;;17.50;99.90;;;;;;5112189;27;20209;-47
2021/08/30 10:05:11;;;;;;;5.90;5.43;;;17.40;99.90;;;;;;5096980;27;20201;-45
2021/08/30 10:07:39;;;;;;;6.83;5.07;;;17.50;99.90;;;;;;5116326;27;20228;-46
2021/08/30 10:10:07;;;;;;;5.37;4.87;;;17.50;99.90;;;;;;5098725;27;20214;-49
2021/08/30 10:12:34;;;;;;;8.83;5.27;;;17.50;99.90;;;;;;5120028;27;20574;-46
2021/08/30 10:15:01;;;;;;;5.87;5.27;;;17.50;99.90;;;;;;5097291;27;20197;-46
2021/08/30 10:17:28;;;;;;;5.93;5.30;;;17.60;99.90;;;;;;5110262;27;21003;-46
2021/08/30 10:19:57;;;;;;;6.17;5.53;;;17.60;99.90;;;;;;5109304;27;20282;-45
2021/08/30 10:22:25;;;;;;;5.70;5.10;;;17.70;99.90;;;;;;5122495;27;20243;-47
2021/08/30 10:24:53;;;;;;;6.47;5.30;;;17.70;99.90;;;;;;5110504;27;20209;-48
2021/08/30 10:27:32;;;;;;;5.83;5.30;;;17.70;99.90;;;;;;5125243;27;20208;-47
2021/08/30 10:30:08;;;;;;;6.00;5.13;;;17.70;99.90;;;;;;5123047;27;20310;-50
2021/08/30 10:32:40;;;;;;;7.77;5.10;;;17.80;99.90;;;;;;5124573;27;20212;-48
2021/08/30 10:35:18;;;;;;;5.70;5.20;;;17.90;99.90;;;;;;5112871;27;20725;-49
2021/08/30 10:37:52;;;;;;;7.63;5.53;;;17.90;99.90;;;;;;5114706;27;20216;-46
2021/08/30 10:40:20;;;;;;;6.60;5.40;;;17.90;99.90;;;;;;5108450;27;20200;-47
2021/08/30 10:43:01;;;;;;;6.63;5.37;;;18.00;99.90;;;;;;5130941;27;20213;-48
2021/08/30 10:45:33;;;;;;;7.10;5.37;;;18.10;99.90;;;;;;5112140;27;20196;-45
2021/08/30 10:48:01;;;;;;;9.20;6.20;;;18.20;99.90;;;;;;5125409;27;20678;-50
2021/08/30 10:50:28;;;;;;;8.43;6.13;;;18.30;99.90;;;;;;5105593;27;20271;-45
2021/08/30 10:53:05;;;;;;;8.10;5.30;;;18.40;99.90;;;;;;5124680;27;20260;-46
2021/08/30 10:55:38;;;;;;;6.13;5.53;;;18.60;99.90;;;;;;5122188;27;22327;-49
2021/08/30 10:58:12;;;;;;;6.27;5.67;;;18.60;99.90;;;;;;5122419;27;20200;-46
2021/08/30 11:00:39;;;;;;;5.80;5.20;;;18.60;99.90;;;;;;5109578;27;20266;-47
2021/08/30 11:03:06;;;;;;;5.40;4.90;;;18.60;99.90;;;;;;5114672;27;20216;-45
2021/08/30 11:05:33;;;;;;;6.23;5.17;;;18.70;99.90;;;;;;5110001;27;20200;-45
2021/08/30 11:08:00;;;;;;;5.83;5.10;;;18.80;99.90;;;;;;5124928;27;20212;-47
2021/08/30 11:10:28;;;;;;;5.60;5.10;;;18.90;99.90;;;;;;5120438;27;20192;-48
2021/08/30 11:12:56;;;;;;;5.40;4.90;;;18.90;99.90;;;;;;5112703;27;20208;-49
2021/08/30 11:15:23;;;;;;;4.80;4.40;;;18.80;99.90;;;;;;5102967;27;20189;-47
2021/08/30 11:17:49;;;;;;;5.20;4.80;;;18.80;99.90;;;;;;5111585;27;20218;-48
2021/08/30 11:20:17;;;;;;;6.50;5.00;;;18.70;99.90;;;;;;5110478;27;20603;-46
2021/08/30 11:22:51;;;;;;;5.33;4.70;;;18.60;99.90;;;;;;5106718;27;20221;-50
2021/08/30 11:25:18;;;;;;;6.80;5.30;;;18.50;99.90;;;;;;5114458;27;20617;-45
2021/08/30 11:27:46;;;;;;;5.83;4.83;;;18.40;99.90;;;;;;5109670;27;20220;-45
2021/08/30 11:30:14;;;;;;;5.67;4.93;;;18.40;99.90;;;;;;5114721;27;20558;-46
2021/08/30 11:32:41;;;;;;;8.20;5.87;;;18.40;99.90;;;;;;5123211;27;20231;-46
2021/08/30 11:35:09;;;;;;;7.70;4.77;;;18.40;99.90;;;;;;5120513;27;21014;-50
2021/08/30 11:37:37;;;;;;;8.33;5.03;;;18.40;99.90;;;;;;5107135;27;20200;-45
2021/08/30 11:40:06;;;;;;;5.87;4.57;;;18.40;99.90;;;;;;5111176;27;20185;-46
2021/08/30 11:42:34;;;;;;;5.67;5.03;;;18.40;99.90;;;;;;5121793;27;20215;-44
2021/08/30 11:45:05;;;;;;;5.70;4.80;;;18.30;99.90;;;;;;5114981;27;20208;-52
2021/08/30 11:47:32;;;;;;;6.57;4.97;;;18.40;99.90;;;;;;5116942;27;20216;-46
2021/08/30 11:50:01;;;;;;;6.07;5.23;;;18.30;99.90;;;;;;5124720;27;20246;-48
2021/08/30 11:52:30;;;;;;;5.87;5.37;;;18.30;99.90;;;;;;5113526;27;20227;-49
2021/08/30 11:54:59;;;;;;;6.83;5.60;;;18.20;99.90;;;;;;5126005;27;20196;-46
2021/08/30 11:57:27;;;;;;;6.20;5.50;;;18.20;99.90;;;;;;5110198;27;20217;-46
2021/08/30 11:59:54;;;;;;;6.80;5.27;;;18.10;99.90;;;;;;5115609;27;20197;-50
2021/08/30 12:02:22;;;;;;;6.87;5.87;;;18.00;99.90;;;;;;5117529;27;20220;-46
2021/08/30 12:04:49;;;;;;;12.20;6.70;;;18.00;99.90;;;;;;5126878;27;20933;-50
2021/08/30 12:07:17;;;;;;;6.53;5.83;;;18.00;99.90;;;;;;5110515;27;20214;-46
2021/08/30 12:09:47;;;;;;;7.40;5.67;;;18.00;99.90;;;;;;5104599;27;20908;-50
2021/08/30 12:12:17;;;;;;;6.20;5.60;;;18.00;99.90;;;;;;5107284;27;20236;-50
2021/08/30 12:14:55;;;;;;;7.63;6.10;;;18.00;99.90;;;;;;5108110;27;20206;-46
2021/08/30 12:17:23;;;;;;;6.20;5.70;;;18.00;99.90;;;;;;5119295;27;20201;-46
2021/08/30 12:19:52;;;;;;;6.53;6.00;;;17.90;99.90;;;;;;5131064;27;20203;-47
2021/08/30 12:22:27;;;;;;;7.07;5.63;;;18.00;99.90;;;;;;5112838;27;20232;-47
2021/08/30 12:25:09;;;;;;;6.37;5.87;;;17.90;99.90;;;;;;5114190;27;20223;-48
2021/08/30 12:27:39;;;;;;;7.20;6.50;;;18.00;99.90;;;;;;5123727;27;20217;-46
2021/08/30 12:30:24;;;;;;;6.93;5.40;;;17.90;99.90;;;;;;5108756;27;20412;-47
2021/08/30 12:33:05;;;;;;;9.17;6.27;;;18.00;99.90;;;;;;5111359;27;20596;-47
2021/08/30 12:35:33;;;;;;;7.67;5.93;;;18.00;99.90;;;;;;5114385;27;20206;-47
2021/08/30 12:38:01;;;;;;;11.60;8.33;;;18.00;99.90;;;;;;5082274;27;20260;-47
2021/08/30 12:40:30;;;;;;;8.60;6.13;;;18.10;99.90;;;;;;5112331;27;20659;-46
2021/08/30 12:42:57;;;;;;;8.13;6.20;;;18.30;99.90;;;;;;5118924;27;20209;-47